createdAt,value
2022-11-30T00:01:10.162Z,7.10
2022-11-30T00:03:38.357Z,7.13
2022-11-30T00:06:06.580Z,7.14
2022-11-30T00:08:34.496Z,7.13
2022-11-30T00:11:08.568Z,7.18
2022-11-30T00:13:36.686Z,7.15
2022-11-30T00:16:04.573Z,7.12
2022-11-30T00:18:32.569Z,7.07
2022-11-30T00:21:00.826Z,7.08
2022-11-30T00:23:32.269Z,7.06
2022-11-30T00:26:01.258Z,7.10
2022-11-30T00:28:32.165Z,7.07
2022-11-30T00:31:01.833Z,7.07
2022-11-30T00:33:30.135Z,7.07
2022-11-30T00:35:58.360Z,7.09
2022-11-30T00:38:26.527Z,7.09
2022-11-30T00:40:54.378Z,7.13
2022-11-30T00:43:22.316Z,7.08
2022-11-30T00:45:51.692Z,7.19
2022-11-30T00:48:19.625Z,7.21
2022-11-30T00:50:49.335Z,7.14
2022-11-30T00:53:17.244Z,7.12
2022-11-30T00:55:45.587Z,7.19
2022-11-30T00:58:13.464Z,7.28
2022-11-30T01:00:41.532Z,7.19
2022-11-30T01:03:11.635Z,7.07
2022-11-30T01:05:39.481Z,6.99
2022-11-30T01:08:08.601Z,7.04
2022-11-30T01:10:37.333Z,6.97
2022-11-30T01:13:05.641Z,6.99
2022-11-30T01:15:36.559Z,6.96
2022-11-30T01:18:04.496Z,6.98
2022-11-30T01:20:34.008Z,6.91
2022-11-30T01:23:01.817Z,6.90
2022-11-30T01:25:29.650Z,6.87
2022-11-30T01:27:57.609Z,6.75
2022-11-30T01:30:25.441Z,6.92
2022-11-30T01:32:53.338Z,6.89
2022-11-30T01:35:21.169Z,6.85
2022-11-30T01:37:50.397Z,6.83
2022-11-30T01:40:18.535Z,6.82
2022-11-30T01:42:46.765Z,6.75
2022-11-30T01:45:14.961Z,6.75
2022-11-30T01:47:44.644Z,6.70
2022-11-30T01:50:15.603Z,6.65
2022-11-30T01:52:44.761Z,6.69
2022-11-30T01:55:17.360Z,6.68
2022-11-30T01:57:48.894Z,6.66
2022-11-30T02:00:17.112Z,6.58
2022-11-30T02:02:48.746Z,6.61
2022-11-30T02:05:17.678Z,6.58
2022-11-30T02:07:45.902Z,6.59
2022-11-30T02:10:17.074Z,6.58
2022-11-30T02:13:01.194Z,6.59
2022-11-30T02:15:32.664Z,6.65
2022-11-30T02:18:05.772Z,6.55
2022-11-30T02:20:51.026Z,6.51
2022-11-30T02:23:40.832Z,6.48
2022-11-30T02:26:16.918Z,6.46
2022-11-30T02:28:55.718Z,6.40
2022-11-30T02:31:26.312Z,6.37
2022-11-30T02:33:56.762Z,6.33
2022-11-30T02:36:25.216Z,6.39
2022-11-30T02:38:53.241Z,6.36
2022-11-30T02:41:21.036Z,6.33
2022-11-30T02:43:50.947Z,6.29
2022-11-30T02:46:22.722Z,6.38
2022-11-30T02:48:52.923Z,6.33
2022-11-30T02:51:23.371Z,6.33
2022-11-30T02:53:51.236Z,6.24
2022-11-30T02:56:20.560Z,6.24
2022-11-30T02:58:49.757Z,6.20
2022-11-30T03:01:17.788Z,6.17
2022-11-30T03:03:48.519Z,6.18
2022-11-30T03:06:17.814Z,6.16
2022-11-30T03:08:45.629Z,6.18
2022-11-30T03:11:13.454Z,6.19
2022-11-30T03:13:41.290Z,6.24
2022-11-30T03:16:11.940Z,6.18
2022-11-30T03:18:40.419Z,6.20
2022-11-30T03:21:08.692Z,6.19
2022-11-30T03:23:36.755Z,6.14
2022-11-30T03:26:05.221Z,6.12
2022-11-30T03:28:33.509Z,6.07
2022-11-30T03:31:01.610Z,6.06
2022-11-30T03:33:30.824Z,6.01
2022-11-30T03:36:02.564Z,6.10
2022-11-30T03:38:30.903Z,6.12
2022-11-30T03:41:02.427Z,6.07
2022-11-30T03:43:30.700Z,6.13
2022-11-30T03:45:58.745Z,6.13
2022-11-30T03:48:26.688Z,6.02
2022-11-30T03:50:55.968Z,6.10
2022-11-30T03:53:24.648Z,6.06
2022-11-30T03:55:52.904Z,6.07
2022-11-30T03:58:20.830Z,6.04
2022-11-30T04:00:48.721Z,6.10
2022-11-30T04:03:16.960Z,6.07
2022-11-30T04:05:44.935Z,6.03
2022-11-30T04:08:14.135Z,6.06
2022-11-30T04:10:42.097Z,5.97
2022-11-30T04:13:09.982Z,5.97
2022-11-30T04:15:38.025Z,6.01
2022-11-30T04:18:05.864Z,5.98
2022-11-30T04:20:40.051Z,5.98
2022-11-30T04:23:08.733Z,5.86
2022-11-30T04:25:39.454Z,6.00
2022-11-30T04:28:07.588Z,5.99
2022-11-30T04:30:36.049Z,5.97
2022-11-30T04:33:04.326Z,5.93
2022-11-30T04:35:32.434Z,5.96
2022-11-30T04:38:00.417Z,5.98
2022-11-30T04:40:28.265Z,5.97
2022-11-30T04:42:57.596Z,6.00
2022-11-30T04:45:25.372Z,5.97
2022-11-30T04:47:53.368Z,6.04
2022-11-30T04:50:21.186Z,5.98
2022-11-30T04:52:49.063Z,6.00
2022-11-30T04:55:19.271Z,6.06
2022-11-30T04:57:47.461Z,6.00
2022-11-30T05:00:18.551Z,5.98
2022-11-30T05:02:52.457Z,6.00
2022-11-30T05:05:21.427Z,5.97
2022-11-30T05:07:50.243Z,5.92
2022-11-30T05:10:18.250Z,5.97
2022-11-30T05:12:46.134Z,5.94
2022-11-30T05:15:14.065Z,6.05
2022-11-30T05:17:43.377Z,5.97
2022-11-30T05:20:11.676Z,6.02
2022-11-30T05:22:39.489Z,6.00
2022-11-30T05:25:08.457Z,6.01
2022-11-30T05:27:36.355Z,5.97
2022-11-30T05:30:04.945Z,5.93
2022-11-30T05:32:32.960Z,5.89
2022-11-30T05:35:02.204Z,5.91
2022-11-30T05:37:30.108Z,5.92
2022-11-30T05:39:57.954Z,5.92
2022-11-30T05:42:25.932Z,6.02
2022-11-30T05:44:53.812Z,6.09
2022-11-30T05:47:21.829Z,6.15
2022-11-30T05:49:49.717Z,6.14
2022-11-30T05:52:18.896Z,6.13
2022-11-30T05:54:47.186Z,6.13
2022-11-30T05:57:15.320Z,6.14
2022-11-30T05:59:43.205Z,6.15
2022-11-30T06:02:11.084Z,6.14
2022-11-30T06:04:39.111Z,6.14
2022-11-30T06:07:11.626Z,6.13
2022-11-30T06:09:42.185Z,6.10
2022-11-30T06:12:10.128Z,6.18
2022-11-30T06:14:38.265Z,6.15
2022-11-30T06:17:07.104Z,6.17
2022-11-30T06:19:35.021Z,6.18
2022-11-30T06:22:02.977Z,6.17
2022-11-30T06:24:30.855Z,6.22
2022-11-30T06:27:00.075Z,6.16
2022-11-30T06:29:28.010Z,6.16
2022-11-30T06:31:55.949Z,6.20
2022-11-30T06:34:24.074Z,6.19
2022-11-30T06:36:51.950Z,6.17
2022-11-30T06:39:36.573Z,6.20
2022-11-30T06:42:09.274Z,6.27
2022-11-30T06:44:37.741Z,6.19
2022-11-30T06:47:05.668Z,6.17
2022-11-30T06:49:33.498Z,6.27
2022-11-30T06:52:01.699Z,6.26
2022-11-30T06:54:29.736Z,6.28
2022-11-30T06:56:57.920Z,6.30
2022-11-30T06:59:27.222Z,6.29
2022-11-30T07:01:55.460Z,6.27
2022-11-30T07:04:23.554Z,6.23
2022-11-30T07:06:53.548Z,6.16
2022-11-30T07:09:21.508Z,6.18
2022-11-30T07:11:49.365Z,6.20
2022-11-30T07:14:17.192Z,6.26
2022-11-30T07:16:46.575Z,6.22
2022-11-30T07:19:14.671Z,6.18
2022-11-30T07:21:42.520Z,6.13
2022-11-30T07:24:30.175Z,6.19
2022-11-30T07:26:59.545Z,6.20
2022-11-30T07:29:27.888Z,6.30
2022-11-30T07:31:57.343Z,6.29
2022-11-30T07:34:25.285Z,6.29
2022-11-30T07:36:53.100Z,6.24
2022-11-30T07:39:21.068Z,6.28
2022-11-30T07:41:48.990Z,6.22
2022-11-30T07:44:18.789Z,6.38
2022-11-30T07:46:46.988Z,6.35
2022-11-30T07:49:16.323Z,6.27
2022-11-30T07:51:44.831Z,6.20
2022-11-30T07:54:12.803Z,6.28
2022-11-30T07:56:40.646Z,6.35
2022-11-30T07:59:08.784Z,6.37
2022-11-30T08:01:37.329Z,6.37
2022-11-30T08:04:05.589Z,6.39
2022-11-30T08:06:34.832Z,6.40
2022-11-30T08:09:05.193Z,6.32
2022-11-30T08:11:34.720Z,6.45
2022-11-30T08:14:03.289Z,6.43
2022-11-30T08:16:32.533Z,6.37
2022-11-30T08:19:00.346Z,6.44
2022-11-30T08:21:28.154Z,6.45
2022-11-30T08:23:57.730Z,6.37
2022-11-30T08:26:26.717Z,6.32
2022-11-30T08:28:59.685Z,6.33
2022-11-30T08:31:29.169Z,6.37
2022-11-30T08:33:57.954Z,6.45
2022-11-30T08:36:26.453Z,6.49
2022-11-30T08:38:55.741Z,6.52
2022-11-30T08:41:25.698Z,6.47
2022-11-30T08:43:53.938Z,6.42
2022-11-30T08:49:26.814Z,6.50
2022-11-30T08:54:47.079Z,6.65
2022-11-30T08:57:17.340Z,6.64
2022-11-30T08:59:45.458Z,6.65
2022-11-30T09:02:16.870Z,6.68
2022-11-30T09:04:45.198Z,6.74
2022-11-30T09:07:13.049Z,6.77
2022-11-30T09:09:40.983Z,6.86
2022-11-30T09:12:08.962Z,6.93
2022-11-30T09:14:38.321Z,6.95
2022-11-30T09:17:07.720Z,6.98
2022-11-30T09:19:37.129Z,6.97
2022-11-30T09:22:04.989Z,6.94
2022-11-30T09:24:32.976Z,6.99
2022-11-30T09:27:00.789Z,7.03
2022-11-30T09:29:29.539Z,7.07
2022-11-30T09:31:58.903Z,7.06
2022-11-30T09:34:26.704Z,7.04
2022-11-30T09:36:54.532Z,7.07
2022-11-30T09:39:22.571Z,7.10
2022-11-30T09:42:09.072Z,7.10
2022-11-30T09:44:43.081Z,7.05
2022-11-30T09:47:20.103Z,7.04
2022-11-30T09:49:48.535Z,7.05
2022-11-30T09:52:19.729Z,7.10
2022-11-30T09:54:48.623Z,7.01
2022-11-30T09:57:24.497Z,6.95
2022-11-30T09:59:55.428Z,6.88
2022-11-30T10:02:27.756Z,6.97
2022-11-30T10:04:55.865Z,7.08
2022-11-30T10:07:33.025Z,7.04
2022-11-30T10:13:00.116Z,7.01
2022-11-30T10:15:33.086Z,7.04
2022-11-30T10:18:09.040Z,7.00
2022-11-30T10:20:47.496Z,7.02
2022-11-30T10:23:24.266Z,7.02
2022-11-30T10:25:56.638Z,7.08
2022-11-30T10:28:48.250Z,7.08
2022-11-30T10:31:17.015Z,7.08
2022-11-30T10:33:47.178Z,6.98
2022-11-30T10:36:17.361Z,7.03
2022-11-30T10:38:46.191Z,6.96
2022-11-30T10:41:15.706Z,6.99
2022-11-30T10:43:45.824Z,6.96
2022-11-30T10:46:23.896Z,7.00
2022-11-30T10:48:57.851Z,6.99
2022-11-30T10:51:28.144Z,6.99
2022-11-30T10:53:56.246Z,7.03
2022-11-30T10:56:24.243Z,7.02
2022-11-30T10:58:55.310Z,6.94
2022-11-30T11:01:34.171Z,6.97
2022-11-30T11:04:11.681Z,6.96
2022-11-30T11:06:42.200Z,6.97
2022-11-30T11:09:45.777Z,6.96
2022-11-30T11:12:19.284Z,7.02
2022-11-30T11:14:47.525Z,6.93
2022-11-30T11:17:26.222Z,6.99
2022-11-30T11:19:55.630Z,6.93
2022-11-30T11:22:24.379Z,6.93
2022-11-30T11:24:54.580Z,6.96
2022-11-30T11:27:25.526Z,6.97
2022-11-30T11:30:02.747Z,6.98
2022-11-30T11:32:31.319Z,7.00
2022-11-30T11:35:00.545Z,6.98
2022-11-30T11:37:30.933Z,6.93
2022-11-30T11:40:04.037Z,6.87
2022-11-30T11:42:33.190Z,6.90
2022-11-30T11:45:01.614Z,6.88
2022-11-30T11:47:33.953Z,6.96
2022-11-30T11:50:31.759Z,6.93
2022-11-30T11:53:08.377Z,6.88
2022-11-30T11:55:36.833Z,6.96
2022-11-30T11:58:04.752Z,6.93
2022-11-30T12:00:33.139Z,6.98
2022-11-30T12:03:04.854Z,6.98
2022-11-30T12:05:46.841Z,7.03
2022-11-30T12:08:18.041Z,7.12
2022-11-30T12:10:53.416Z,7.09
2022-11-30T12:13:22.912Z,7.13
2022-11-30T12:16:00.216Z,7.10
2022-11-30T12:18:33.738Z,7.01
2022-11-30T12:21:08.569Z,6.99
2022-11-30T12:23:44.898Z,7.12
2022-11-30T12:26:16.771Z,7.16
2022-11-30T12:28:51.871Z,7.12
2022-11-30T12:31:19.900Z,7.15
2022-11-30T12:34:03.055Z,7.09
2022-11-30T12:36:39.979Z,7.00
2022-11-30T12:39:09.580Z,6.95
2022-11-30T12:41:41.966Z,6.95
2022-11-30T12:44:29.990Z,6.99
2022-11-30T12:47:06.255Z,6.96
2022-11-30T12:49:47.823Z,6.93
2022-11-30T12:52:25.504Z,6.90
2022-11-30T12:54:58.485Z,6.89
2022-11-30T12:57:31.470Z,6.94
2022-11-30T13:00:04.526Z,6.93
2022-11-30T13:02:59.280Z,6.85
2022-11-30T13:05:31.494Z,6.82
2022-11-30T13:08:05.509Z,6.79
2022-11-30T13:10:37.755Z,6.69
2022-11-30T13:13:06.315Z,6.72
2022-11-30T13:15:34.879Z,6.74
2022-11-30T13:18:04.484Z,6.73
2022-11-30T13:20:38.707Z,6.65
2022-11-30T13:23:11.197Z,6.66
2022-11-30T13:26:07.371Z,6.63
2022-11-30T13:28:35.851Z,6.71
2022-11-30T13:31:06.472Z,6.62
2022-11-30T13:33:48.085Z,6.61
2022-11-30T13:36:25.852Z,6.59
2022-11-30T13:39:11.116Z,6.56
2022-11-30T13:41:39.344Z,6.66
2022-11-30T13:44:21.979Z,6.61
2022-11-30T13:46:51.037Z,6.61
2022-11-30T13:49:21.060Z,6.55
2022-11-30T13:52:07.006Z,6.57
2022-11-30T13:54:39.476Z,6.44
2022-11-30T13:57:16.860Z,6.35
2022-11-30T13:59:48.989Z,6.37
2022-11-30T14:02:41.708Z,6.41
2022-11-30T14:05:26.568Z,6.41
2022-11-30T14:08:16.973Z,6.47
2022-11-30T14:10:47.019Z,6.43
2022-11-30T14:13:29.046Z,6.42
2022-11-30T14:15:59.772Z,6.39
2022-11-30T14:18:40.798Z,6.42
2022-11-30T14:21:15.555Z,6.41
2022-11-30T14:23:47.906Z,6.30
2022-11-30T14:26:18.502Z,6.29
2022-11-30T14:28:51.256Z,6.27
2022-11-30T14:31:23.007Z,6.37
2022-11-30T14:33:54.290Z,6.41
2022-11-30T14:36:23.813Z,6.23
2022-11-30T14:38:51.632Z,6.19
2022-11-30T14:41:22.071Z,6.32
2022-11-30T14:44:02.920Z,6.28
2022-11-30T14:46:33.598Z,6.34
2022-11-30T14:49:05.269Z,6.23
2022-11-30T14:51:33.796Z,6.23
2022-11-30T14:54:06.314Z,6.17
2022-11-30T14:56:38.080Z,6.08
2022-11-30T14:59:12.174Z,6.15
2022-11-30T15:01:40.933Z,6.31
2022-11-30T15:04:12.215Z,6.31
2022-11-30T15:06:41.013Z,6.18
2022-11-30T15:09:20.494Z,6.18
2022-11-30T15:11:57.709Z,6.12
2022-11-30T15:14:25.848Z,6.13
2022-11-30T15:16:54.528Z,6.03
2022-11-30T15:19:24.159Z,6.04
2022-11-30T15:21:53.264Z,6.01
2022-11-30T15:24:21.803Z,6.01
2022-11-30T15:26:54.783Z,6.00
2022-11-30T15:29:26.003Z,6.02
2022-11-30T15:31:55.717Z,6.13
2022-11-30T15:34:27.868Z,6.12
2022-11-30T15:36:56.078Z,5.98
2022-11-30T15:39:26.159Z,5.99
2022-11-30T15:41:56.259Z,5.95
2022-11-30T15:44:28.013Z,5.96
2022-11-30T15:46:57.449Z,5.93
2022-11-30T15:49:28.854Z,6.04
2022-11-30T15:52:04.193Z,5.95
2022-11-30T15:54:48.962Z,6.08
2022-11-30T15:57:18.380Z,6.04
2022-11-30T16:00:03.008Z,5.96
2022-11-30T16:02:32.782Z,5.89
2022-11-30T16:05:19.665Z,5.87
2022-11-30T16:07:50.057Z,5.92
2022-11-30T16:10:21.061Z,5.87
2022-11-30T16:12:51.897Z,5.75
2022-11-30T16:15:21.215Z,5.85
2022-11-30T16:17:49.040Z,5.83
2022-11-30T16:20:17.473Z,5.71
2022-11-30T16:22:45.973Z,5.67
2022-11-30T16:25:14.654Z,5.60
2022-11-30T16:27:42.869Z,5.63
2022-11-30T16:30:14.877Z,5.64
2022-11-30T16:32:44.850Z,5.66
2022-11-30T16:35:17.900Z,5.61
2022-11-30T16:37:45.979Z,5.56
2022-11-30T16:40:14.330Z,5.56
2022-11-30T16:42:42.476Z,5.52
2022-11-30T16:45:14.413Z,5.49
2022-11-30T16:47:44.216Z,5.54
2022-11-30T16:50:12.661Z,5.58
2022-11-30T16:52:40.976Z,5.53
2022-11-30T16:55:15.798Z,5.56
2022-11-30T16:57:44.138Z,5.50
2022-11-30T17:00:13.570Z,5.51
2022-11-30T17:02:45.994Z,5.47
2022-11-30T17:05:15.021Z,5.46
2022-11-30T17:07:43.890Z,5.46
2022-11-30T17:10:12.813Z,5.62
2022-11-30T17:12:41.285Z,5.55
2022-11-30T17:15:12.283Z,5.52
2022-11-30T17:17:40.244Z,5.61
2022-11-30T17:20:10.259Z,5.62
2022-11-30T17:22:39.710Z,5.51
2022-11-30T17:25:09.994Z,5.58
2022-11-30T17:27:40.357Z,5.61
2022-11-30T17:30:09.848Z,5.52
2022-11-30T17:32:37.734Z,5.41
2022-11-30T17:35:05.744Z,5.47
2022-11-30T17:37:34.964Z,5.48
2022-11-30T17:40:03.984Z,5.47
2022-11-30T17:42:31.889Z,5.54
2022-11-30T17:44:59.859Z,5.47
2022-11-30T17:47:27.696Z,5.48
2022-11-30T17:49:56.634Z,5.44
2022-11-30T17:52:25.031Z,5.56
2022-11-30T17:54:54.155Z,5.42
2022-11-30T17:57:22.363Z,5.35
2022-11-30T17:59:50.560Z,5.27
2022-11-30T18:02:18.827Z,5.27
2022-11-30T18:04:54.428Z,5.24
2022-11-30T18:07:22.802Z,5.24
2022-11-30T18:09:51.546Z,5.39
2022-11-30T18:12:20.750Z,5.38
2022-11-30T18:14:55.973Z,5.37
2022-11-30T18:17:24.108Z,5.35
2022-11-30T18:19:52.129Z,5.41
2022-11-30T18:22:19.980Z,5.42
2022-11-30T18:24:47.970Z,5.40
2022-11-30T18:27:16.024Z,5.45
2022-11-30T18:29:49.663Z,5.45
2022-11-30T18:32:17.966Z,5.31
2022-11-30T18:34:49.278Z,5.41
2022-11-30T18:37:17.661Z,5.45
2022-11-30T18:39:45.624Z,5.37
2022-11-30T18:42:15.704Z,5.31
2022-11-30T18:44:43.891Z,5.35
2022-11-30T18:47:13.100Z,5.42
2022-11-30T18:49:41.109Z,5.39
2022-11-30T18:52:08.957Z,5.34
2022-11-30T18:54:36.756Z,5.30
2022-11-30T18:57:04.764Z,5.33
2022-11-30T18:59:32.620Z,5.43
2022-11-30T19:02:00.749Z,5.38
2022-11-30T19:04:30.158Z,5.46
2022-11-30T19:06:58.107Z,5.38
2022-11-30T19:09:26.886Z,5.42
2022-11-30T19:11:54.906Z,5.35
2022-11-30T19:14:23.676Z,5.35
2022-11-30T19:16:51.880Z,5.29
2022-11-30T19:19:21.649Z,5.29
2022-11-30T19:21:50.895Z,5.27
2022-11-30T19:24:19.031Z,5.32
2022-11-30T19:26:47.103Z,5.34
2022-11-30T19:29:15.669Z,5.33
2022-11-30T19:31:43.967Z,5.28
2022-11-30T19:34:13.227Z,5.28
2022-11-30T19:36:42.031Z,5.35
2022-11-30T19:39:13.644Z,5.30
2022-11-30T19:41:43.395Z,5.21
2022-11-30T19:44:14.608Z,5.28
2022-11-30T19:46:43.644Z,5.28
2022-11-30T19:49:12.330Z,5.45
2022-11-30T19:51:40.631Z,5.45
2022-11-30T19:54:08.828Z,5.46
2022-11-30T19:59:27.587Z,5.47
2022-11-30T20:01:55.839Z,5.42
2022-11-30T20:04:24.125Z,5.53
2022-11-30T20:06:52.111Z,5.51
2022-11-30T20:09:20.255Z,5.43
2022-11-30T20:11:50.503Z,5.41
2022-11-30T20:14:18.844Z,5.38
2022-11-30T20:16:46.721Z,5.35
2022-11-30T20:19:15.882Z,5.25
2022-11-30T20:21:43.780Z,5.16
2022-11-30T20:24:12.372Z,5.20
2022-11-30T20:26:41.374Z,5.22
2022-11-30T20:29:13.498Z,5.21
2022-11-30T20:31:41.705Z,5.25
2022-11-30T20:34:10.293Z,5.21
2022-11-30T20:36:38.652Z,5.31
2022-11-30T20:39:07.100Z,5.40
2022-11-30T20:41:35.277Z,5.39
2022-11-30T20:44:04.037Z,5.31
2022-11-30T20:46:34.411Z,5.37
2022-11-30T20:49:03.483Z,5.36
2022-11-30T20:51:33.001Z,5.23
2022-11-30T20:54:01.833Z,5.26
2022-11-30T20:56:29.995Z,5.29
2022-11-30T20:59:01.201Z,5.27
2022-11-30T21:01:29.418Z,5.17
2022-11-30T21:04:00.470Z,5.15
2022-11-30T21:06:32.910Z,5.12
2022-11-30T21:09:01.065Z,5.22
2022-11-30T21:11:29.568Z,5.18
2022-11-30T21:14:00.681Z,5.31
2022-11-30T21:16:30.113Z,5.31
2022-11-30T21:19:02.348Z,5.27
2022-11-30T21:21:37.746Z,5.33
2022-11-30T21:24:09.220Z,5.31
2022-11-30T21:26:38.005Z,5.25
2022-11-30T21:29:07.202Z,5.22
2022-11-30T21:31:35.472Z,5.18
2022-11-30T21:34:05.880Z,5.20
2022-11-30T21:36:40.154Z,5.18
2022-11-30T21:39:08.525Z,5.26
2022-11-30T21:41:38.103Z,5.18
2022-11-30T21:44:08.533Z,5.20
2022-11-30T21:46:40.697Z,5.21
2022-11-30T21:49:10.537Z,5.16
2022-11-30T21:51:38.929Z,5.21
2022-11-30T21:54:12.428Z,5.23
2022-11-30T21:56:41.079Z,5.36
2022-11-30T21:59:10.431Z,5.38
2022-11-30T22:01:39.804Z,5.31
2022-11-30T22:06:54.382Z,5.16
2022-11-30T22:09:23.248Z,5.21
2022-11-30T22:11:55.464Z,5.35
2022-11-30T22:14:25.322Z,5.28
2022-11-30T22:16:53.302Z,5.28
2022-11-30T22:19:21.488Z,5.27
2022-11-30T22:21:50.372Z,5.22
2022-11-30T22:24:20.027Z,5.23
2022-11-30T22:26:49.364Z,5.35
2022-11-30T22:29:18.369Z,5.35
2022-11-30T22:31:47.730Z,5.31
2022-11-30T22:34:15.875Z,5.34
2022-11-30T22:36:44.675Z,5.43
2022-11-30T22:39:14.084Z,5.42
2022-11-30T22:41:45.345Z,5.26
2022-11-30T22:44:13.723Z,5.35
2022-11-30T22:46:41.752Z,5.29
2022-11-30T22:49:12.733Z,5.35
2022-11-30T22:51:44.963Z,5.28
2022-11-30T22:54:13.216Z,5.19
2022-11-30T22:56:41.951Z,5.29
2022-11-30T22:59:12.917Z,5.16
2022-11-30T23:01:43.557Z,5.33
2022-11-30T23:04:12.478Z,5.25
2022-11-30T23:06:41.173Z,5.29
2022-11-30T23:09:11.600Z,5.24
2022-11-30T23:11:39.518Z,5.21
2022-11-30T23:14:09.172Z,5.21
2022-11-30T23:16:38.982Z,5.27
2022-11-30T23:19:07.398Z,5.27
2022-11-30T23:21:40.970Z,5.33
2022-11-30T23:24:17.512Z,5.37
2022-11-30T23:26:46.117Z,5.22
2022-11-30T23:29:15.122Z,5.20
2022-11-30T23:31:45.412Z,5.26
2022-11-30T23:34:15.056Z,5.24
2022-11-30T23:36:42.945Z,5.26
2022-11-30T23:39:12.513Z,5.22
2022-11-30T23:41:45.691Z,5.31
2022-11-30T23:44:13.905Z,5.28
2022-11-30T23:46:42.136Z,5.28
2022-11-30T23:49:12.787Z,5.20
2022-11-30T23:51:40.800Z,5.30
2022-11-30T23:54:09.038Z,5.32
2022-11-30T23:56:36.968Z,5.33
2022-11-30T23:59:05.861Z,5.33
